Terminal Aerodrome Forecast
Issued by NWS Lubbock, TX

Current Version | Previous Version | Text Only | Print | Product List | Glossary On
Versions: 1 2 3 4 5 6 7 8 9 10 11 12 13
000
FTUS44 KLUB 250500
TAFLBB
TAF
KLBB 250520Z 2506/2606 17007KT P6SM SCT250
     FM251400 20020G30KT P6SM FEW300=

USA.gov is the U.S. government's official web portal to all federal, state and local government web resources and services.